Time;durP1;ratioP1;P1;durP2;ratioP2;P2;SDS_P1;SDS_P2;PMS_P1;PMS_P2;Temp;Humidity;BMP_temperature;BMP_pressure;BME280_temperature;BME280_humidity;BME280_pressure;Samples;Min_cycle;Max_cycle;Signal;HPM_P1;HPM_P2
2021/12/11 00:00:08;;;;;;;0.40;0.40;;;-0.60;99.90;;;;;;5053562;28;20663;-77
2021/12/11 00:02:35;;;;;;;2.58;2.47;;;-0.60;99.90;;;;;;5053303;28;20637;-77
2021/12/11 00:05:02;;;;;;;2.60;2.40;;;-0.60;99.90;;;;;;5053758;28;20686;-77
2021/12/11 00:07:30;;;;;;;2.72;2.53;;;-0.60;99.90;;;;;;5054023;28;20262;-78
2021/12/11 00:10:01;;;;;;;0.60;0.60;;;-0.50;99.90;;;;;;5053467;28;20688;-77
2021/12/11 00:12:31;;;;;;;0.95;0.95;;;-0.40;99.90;;;;;;5053311;28;20204;-75
2021/12/11 00:15:06;;;;;;;0.40;0.40;;;-0.40;99.90;;;;;;5053923;28;20510;-77
2021/12/11 00:17:34;;;;;;;3.05;1.98;;;-0.40;99.90;;;;;;5052849;28;20405;-77
2021/12/11 00:20:01;;;;;;;0.40;0.40;;;-0.50;99.90;;;;;;5053646;28;20231;-74
2021/12/11 00:22:30;;;;;;;0.40;0.40;;;-0.50;99.90;;;;;;5053170;28;20329;-77
2021/12/11 00:25:05;;;;;;;0.40;0.40;;;-0.60;99.90;;;;;;5053207;28;20227;-77
2021/12/11 00:27:35;;;;;;;0.40;0.40;;;-0.70;99.90;;;;;;5053274;28;20705;-77
2021/12/11 00:30:02;;;;;;;0.40;0.40;;;-0.80;99.90;;;;;;5053156;28;20199;-72
2021/12/11 00:32:32;;;;;;;0.45;0.45;;;-0.80;99.90;;;;;;5053249;28;20198;-77
2021/12/11 00:35:13;;;;;;;0.40;0.40;;;-0.80;99.90;;;;;;5052876;28;20198;-77
2021/12/11 00:37:40;;;;;;;0.40;0.40;;;-0.80;99.90;;;;;;5053348;28;20675;-77
2021/12/11 00:40:14;;;;;;;0.40;0.40;;;-0.90;99.90;;;;;;5053213;28;20300;-78
2021/12/11 00:42:48;;;;;;;0.40;0.40;;;-0.90;99.90;;;;;;5052987;28;20557;-78
2021/12/11 00:45:17;;;;;;;0.40;0.40;;;-0.90;99.90;;;;;;5052807;28;20605;-79
2021/12/11 00:47:48;;;;;;;0.40;0.40;;;-0.90;99.90;;;;;;5052904;28;20213;-78
2021/12/11 00:50:17;;;;;;;0.40;0.40;;;-1.00;99.90;;;;;;5052646;28;20680;-77
2021/12/11 00:52:46;;;;;;;0.40;0.40;;;-1.00;99.90;;;;;;5052873;28;20608;-77
2021/12/11 00:55:21;;;;;;;0.40;0.40;;;-0.90;99.90;;;;;;5052805;28;20694;-77
2021/12/11 00:57:50;;;;;;;0.40;0.40;;;-0.90;99.90;;;;;;5052895;28;20216;-77
2021/12/11 01:00:23;;;;;;;1.75;1.75;;;-0.80;99.90;;;;;;5052361;28;20199;-78
2021/12/11 01:02:53;;;;;;;0.40;0.40;;;-0.80;99.90;;;;;;5052930;28;20201;-77
2021/12/11 01:05:21;;;;;;;0.40;0.40;;;-0.70;99.90;;;;;;5052365;28;20198;-77
2021/12/11 01:07:49;;;;;;;0.40;0.40;;;-0.60;99.90;;;;;;5052135;28;20720;-78
2021/12/11 01:10:23;;;;;;;0.70;0.60;;;-0.60;99.90;;;;;;5051515;28;20201;-78
2021/12/11 01:12:58;;;;;;;0.82;0.70;;;-0.60;99.90;;;;;;5052432;28;20201;-77
2021/12/11 01:15:30;;;;;;;0.40;0.35;;;-0.50;99.90;;;;;;5052331;28;20269;-78
2021/12/11 01:18:10;;;;;;;0.40;0.40;;;-0.50;99.90;;;;;;5052418;28;20584;-78
2021/12/11 01:20:47;;;;;;;0.40;0.40;;;-0.50;99.90;;;;;;5052470;28;20553;-77
2021/12/11 01:23:28;;;;;;;0.40;0.40;;;-0.40;99.90;;;;;;5052213;28;20194;-78
2021/12/11 01:25:57;;;;;;;0.40;0.40;;;-0.50;99.90;;;;;;5052325;28;20280;-77
2021/12/11 01:28:25;;;;;;;0.82;0.82;;;-0.50;99.90;;;;;;5052205;28;20582;-77
2021/12/11 01:30:52;;;;;;;1.77;1.67;;;-0.40;99.90;;;;;;5052335;28;20205;-77
2021/12/11 01:33:19;;;;;;;0.40;0.40;;;-0.50;99.90;;;;;;5052273;28;20695;-78
2021/12/11 01:35:47;;;;;;;0.50;0.50;;;-0.60;99.90;;;;;;5052069;28;20198;-77
2021/12/11 01:38:22;;;;;;;0.57;0.57;;;-0.60;99.90;;;;;;5052260;28;20245;-78
2021/12/11 01:40:51;;;;;;;0.40;0.40;;;-0.50;99.90;;;;;;5051616;28;20556;-77
2021/12/11 01:43:22;;;;;;;0.40;0.30;;;-0.60;99.90;;;;;;5052245;28;20553;-78
2021/12/11 01:45:52;;;;;;;0.40;0.40;;;-0.50;99.90;;;;;;5051904;28;20569;-77
2021/12/11 01:48:21;;;;;;;0.40;0.40;;;-0.60;99.90;;;;;;5052000;28;20213;-78
2021/12/11 01:51:03;;;;;;;0.40;0.30;;;-0.60;99.90;;;;;;5051744;28;20198;-77
2021/12/11 01:53:35;;;;;;;0.40;0.38;;;-0.70;99.90;;;;;;5051989;28;20198;-77
2021/12/11 01:56:05;;;;;;;0.40;0.35;;;-0.70;99.90;;;;;;5051639;28;20203;-79
2021/12/11 01:58:39;;;;;;;0.40;0.30;;;-0.70;99.90;;;;;;5051719;28;20218;-78
2021/12/11 02:01:10;;;;;;;0.40;0.40;;;-0.70;99.90;;;;;;5051569;28;20197;-76
2021/12/11 02:03:38;;;;;;;1.15;1.05;;;-0.80;99.90;;;;;;5051855;28;20572;-77
2021/12/11 02:06:05;;;;;;;0.40;0.40;;;-0.80;99.90;;;;;;5051534;28;20674;-78
2021/12/11 02:08:35;;;;;;;0.40;0.30;;;-0.70;99.90;;;;;;5051193;28;20198;-77
2021/12/11 02:11:08;;;;;;;0.40;0.30;;;-0.70;99.90;;;;;;5051738;28;20198;-77
2021/12/11 02:13:42;;;;;;;0.40;0.40;;;-0.80;99.90;;;;;;5051486;28;20207;-78
2021/12/11 02:16:17;;;;;;;0.40;0.30;;;-0.90;99.90;;;;;;5051414;28;20179;-77
2021/12/11 02:18:46;;;;;;;0.77;0.77;;;-0.90;99.90;;;;;;5051397;28;20215;-76
2021/12/11 02:21:16;;;;;;;2.60;2.50;;;-1.00;99.90;;;;;;5055298;28;20684;-77
2021/12/11 02:23:45;;;;;;;0.40;0.30;;;-1.00;99.90;;;;;;5058152;28;20202;-77
2021/12/11 02:26:15;;;;;;;0.40;0.40;;;-1.00;99.90;;;;;;5058324;28;20198;-78
2021/12/11 02:28:48;;;;;;;0.40;0.30;;;-1.00;99.90;;;;;;5058151;28;20194;-77
2021/12/11 02:31:19;;;;;;;0.40;0.40;;;-1.00;99.90;;;;;;5058306;28;20625;-77
2021/12/11 02:33:53;;;;;;;0.40;0.30;;;-1.10;99.90;;;;;;5057419;28;20198;-77
2021/12/11 02:36:25;;;;;;;1.92;0.98;;;-1.10;99.90;;;;;;5057835;28;20214;-77
2021/12/11 02:38:59;;;;;;;0.40;0.30;;;-1.00;99.90;;;;;;5058110;28;20211;-77
2021/12/11 02:41:31;;;;;;;0.40;0.40;;;-1.00;99.90;;;;;;5058135;28;20695;-78
2021/12/11 02:44:04;;;;;;;1.88;1.88;;;-1.00;99.90;;;;;;5057695;28;20205;-77
2021/12/11 02:46:35;;;;;;;0.50;0.50;;;-0.90;99.90;;;;;;5058689;28;20218;-76
2021/12/11 02:49:11;;;;;;;0.40;0.32;;;-0.80;99.90;;;;;;5057818;28;20194;-74
2021/12/11 02:51:43;;;;;;;0.40;0.40;;;-0.70;99.90;;;;;;5058203;28;20178;-77
2021/12/11 02:54:16;;;;;;;2.58;1.40;;;-0.60;99.90;;;;;;5057829;28;20670;-76
2021/12/11 02:56:47;;;;;;;0.40;0.40;;;-0.60;99.90;;;;;;5058180;28;20211;-77
2021/12/11 02:59:18;;;;;;;0.80;0.80;;;-0.50;99.90;;;;;;5057717;28;20239;-77
2021/12/11 03:01:49;;;;;;;0.40;0.40;;;-0.60;99.90;;;;;;5059647;28;20182;-77
2021/12/11 03:04:23;;;;;;;0.40;0.40;;;-0.60;99.90;;;;;;5058370;28;20204;-76
2021/12/11 03:06:52;;;;;;;2.15;2.05;;;-0.60;99.90;;;;;;5057859;28;20212;-77
2021/12/11 03:09:24;;;;;;;0.40;0.30;;;-0.70;99.90;;;;;;5057383;28;20192;-78
2021/12/11 03:11:53;;;;;;;0.50;0.50;;;-0.80;99.90;;;;;;5057771;28;20206;-77
2021/12/11 03:14:21;;;;;;;3.05;2.85;;;-0.90;99.90;;;;;;5057762;28;20245;-78
2021/12/11 03:16:50;;;;;;;0.77;0.77;;;-0.80;99.90;;;;;;5057932;28;20267;-77
2021/12/11 03:19:19;;;;;;;0.70;0.70;;;-0.70;99.90;;;;;;5057344;28;20310;-78
2021/12/11 03:21:47;;;;;;;2.65;2.55;;;-0.60;99.90;;;;;;5057929;28;20201;-77
2021/12/11 03:24:14;;;;;;;2.25;2.15;;;-0.50;99.90;;;;;;5057152;28;20684;-77
2021/12/11 03:26:44;;;;;;;2.88;2.65;;;-0.40;99.90;;;;;;5057834;28;20307;-77
2021/12/11 03:29:11;;;;;;;0.55;0.55;;;-0.40;99.90;;;;;;5057443;28;20190;-77
2021/12/11 03:31:39;;;;;;;3.47;3.35;;;-0.40;99.90;;;;;;5056992;28;20202;-77
2021/12/11 03:34:10;;;;;;;0.50;0.40;;;-0.40;99.90;;;;;;5053559;28;20591;-77
2021/12/11 03:36:38;;;;;;;2.05;1.50;;;-0.30;99.90;;;;;;5054506;28;20226;-77
2021/12/11 03:39:08;;;;;;;2.13;2.05;;;-0.30;99.90;;;;;;5053946;28;20220;-77
2021/12/11 03:41:35;;;;;;;4.40;2.92;;;-0.40;99.90;;;;;;5054508;28;20203;-77
2021/12/11 03:44:04;;;;;;;3.05;0.70;;;-0.30;99.90;;;;;;5053988;28;20198;-77
2021/12/11 03:46:31;;;;;;;0.40;0.30;;;-0.30;99.90;;;;;;5053847;28;20214;-77
2021/12/11 03:49:00;;;;;;;0.40;0.40;;;-0.30;99.90;;;;;;5053731;28;20682;-75
2021/12/11 03:51:31;;;;;;;1.67;1.67;;;-0.30;99.90;;;;;;5054676;28;20217;-78
2021/12/11 03:54:00;;;;;;;1.77;1.67;;;-0.30;99.90;;;;;;5054612;28;20195;-78
2021/12/11 03:56:27;;;;;;;2.55;2.33;;;-0.30;99.90;;;;;;5053989;28;20215;-77
2021/12/11 03:58:55;;;;;;;2.15;2.05;;;-0.30;99.90;;;;;;5053876;28;20232;-77
2021/12/11 04:01:27;;;;;;;2.67;2.50;;;-0.30;99.90;;;;;;5054044;28;20194;-78
2021/12/11 04:03:57;;;;;;;3.92;3.00;;;-0.20;99.90;;;;;;5054009;28;20555;-77
2021/12/11 04:06:24;;;;;;;0.50;0.50;;;-0.20;99.90;;;;;;5053979;28;20217;-77
2021/12/11 04:08:52;;;;;;;7.63;3.75;;;-0.20;99.90;;;;;;5053365;28;20194;-75
2021/12/11 04:11:22;;;;;;;5.18;3.42;;;-0.20;99.90;;;;;;5053549;28;20190;-77
2021/12/11 04:13:51;;;;;;;1.95;1.50;;;-0.20;99.90;;;;;;5053936;28;20197;-77
2021/12/11 04:16:18;;;;;;;1.52;1.52;;;-0.20;99.90;;;;;;5053799;28;20229;-77
2021/12/11 04:18:47;;;;;;;0.55;0.55;;;-0.20;99.90;;;;;;5053606;28;20216;-76
2021/12/11 04:21:15;;;;;;;8.90;5.85;;;-0.20;99.90;;;;;;5053511;28;20203;-77
2021/12/11 04:23:42;;;;;;;2.65;2.45;;;-0.20;99.90;;;;;;5053769;28;20209;-77
2021/12/11 04:26:10;;;;;;;1.80;1.70;;;-0.20;99.90;;;;;;5053256;28;20206;-77
2021/12/11 04:28:39;;;;;;;2.67;2.47;;;-0.30;99.90;;;;;;5054174;28;20187;-77
2021/12/11 04:31:09;;;;;;;5.82;4.10;;;-0.30;99.90;;;;;;5053104;28;20205;-73
2021/12/11 04:33:38;;;;;;;3.28;2.50;;;-0.30;99.90;;;;;;5053724;28;20593;-76
2021/12/11 04:36:09;;;;;;;6.07;4.13;;;-0.30;99.90;;;;;;5052891;28;20219;-77
2021/12/11 04:38:37;;;;;;;4.75;2.22;;;-0.30;99.90;;;;;;5053393;28;20221;-75
2021/12/11 04:41:05;;;;;;;1.15;1.15;;;-0.20;99.90;;;;;;5052987;28;20199;-77
2021/12/11 04:43:33;;;;;;;3.40;3.20;;;-0.20;99.90;;;;;;5052751;28;20217;-77
2021/12/11 04:46:04;;;;;;;1.20;0.73;;;-0.10;99.90;;;;;;5051987;28;20564;-77
2021/12/11 04:48:40;;;;;;;4.55;2.55;;;-0.10;99.90;;;;;;5053215;28;20560;-77
2021/12/11 04:51:16;;;;;;;2.25;1.20;;;-0.10;99.90;;;;;;5053155;28;20551;-75
2021/12/11 04:53:55;;;;;;;2.55;2.45;;;-0.10;99.90;;;;;;5053263;28;20183;-77
2021/12/11 04:59:34;;;;;;;3.08;2.85;;;-0.10;99.90;;;;;;5052785;28;20221;-77
2021/12/11 05:02:16;;;;;;;4.72;3.08;;;0.00;99.90;;;;;;5053012;28;20186;-77
2021/12/11 05:05:05;;;;;;;0.93;0.80;;;0.00;99.90;;;;;;5053231;28;20195;-77
2021/12/11 05:07:39;;;;;;;2.30;2.10;;;0.10;99.90;;;;;;5053019;28;20238;-77
2021/12/11 05:10:14;;;;;;;5.72;3.90;;;0.10;99.90;;;;;;5052353;28;20198;-75
2021/12/11 05:12:41;;;;;;;1.00;1.00;;;0.10;99.90;;;;;;5052488;28;20181;-77
2021/12/11 05:15:13;;;;;;;2.97;2.78;;;0.20;99.90;;;;;;5053092;28;20206;-77
2021/12/11 05:17:41;;;;;;;1.35;1.35;;;0.20;99.90;;;;;;5052934;28;20224;-77
2021/12/11 05:20:10;;;;;;;6.82;4.15;;;0.20;99.90;;;;;;5052275;28;20224;-75
2021/12/11 05:22:39;;;;;;;6.72;4.57;;;0.20;99.90;;;;;;5052483;28;20212;-77
2021/12/11 05:25:08;;;;;;;4.88;3.50;;;0.20;99.90;;;;;;5052435;28;20667;-77
2021/12/11 05:27:36;;;;;;;4.80;2.38;;;0.20;99.90;;;;;;5052443;28;20234;-77
2021/12/11 05:30:05;;;;;;;4.35;3.15;;;0.20;99.90;;;;;;5052030;28;20198;-77
2021/12/11 05:32:31;;;;;;;2.35;1.50;;;0.30;99.90;;;;;;5052174;28;20196;-77
2021/12/11 05:34:58;;;;;;;7.38;4.25;;;0.30;99.90;;;;;;5052664;28;20208;-78
2021/12/11 05:37:26;;;;;;;20.05;8.02;;;0.30;99.90;;;;;;5052011;28;20215;-77
2021/12/11 05:39:54;;;;;;;2.90;2.70;;;0.20;99.90;;;;;;5051781;28;20220;-77
2021/12/11 05:42:22;;;;;;;17.98;6.32;;;0.20;99.90;;;;;;5052108;28;20537;-77
2021/12/11 05:44:49;;;;;;;4.88;4.53;;;0.10;99.90;;;;;;5051927;28;20583;-78
2021/12/11 05:47:16;;;;;;;3.90;3.55;;;0.10;99.90;;;;;;5051335;28;20244;-77
2021/12/11 05:49:45;;;;;;;2.50;2.40;;;0.20;99.90;;;;;;5051895;28;20557;-77
2021/12/11 05:52:13;;;;;;;1.20;1.20;;;0.10;99.90;;;;;;5051851;28;20345;-77
2021/12/11 05:54:43;;;;;;;8.38;2.58;;;0.20;99.90;;;;;;5052078;28;20192;-77
2021/12/11 05:57:14;;;;;;;18.25;9.75;;;0.20;99.90;;;;;;5051577;28;20218;-77
2021/12/11 05:59:43;;;;;;;20.20;9.93;;;0.20;99.90;;;;;;5051892;28;20202;-77
2021/12/11 06:02:14;;;;;;;6.20;5.68;;;0.20;99.90;;;;;;5051885;28;20190;-77
2021/12/11 06:04:42;;;;;;;23.90;9.60;;;0.20;99.90;;;;;;5051654;28;20198;-77
2021/12/11 06:07:12;;;;;;;17.05;11.32;;;0.20;99.90;;;;;;5051659;28;20221;-77
2021/12/11 06:09:40;;;;;;;30.85;7.38;;;0.20;99.90;;;;;;5051563;28;20652;-77
2021/12/11 06:12:13;;;;;;;5.25;4.43;;;0.20;99.90;;;;;;5051946;28;20200;-73
2021/12/11 06:14:40;;;;;;;11.32;10.05;;;0.20;99.90;;;;;;5051788;28;20198;-77
2021/12/11 06:17:10;;;;;;;10.43;7.38;;;0.30;99.90;;;;;;5051660;28;20235;-77
2021/12/11 06:19:38;;;;;;;9.25;5.88;;;0.20;99.90;;;;;;5051672;28;20221;-76
2021/12/11 06:22:06;;;;;;;4.78;4.15;;;0.20;99.90;;;;;;5052107;28;20289;-77
2021/12/11 06:24:32;;;;;;;47.97;6.50;;;0.30;99.90;;;;;;5051556;28;20198;-77
2021/12/11 06:27:00;;;;;;;4.75;2.90;;;0.30;99.90;;;;;;5051300;28;20226;-75
2021/12/11 06:29:29;;;;;;;8.65;2.15;;;0.30;99.90;;;;;;5051575;28;20284;-77
2021/12/11 06:31:57;;;;;;;1.55;1.48;;;0.40;99.90;;;;;;5051568;28;20197;-78
2021/12/11 06:34:24;;;;;;;1.70;1.63;;;0.40;99.90;;;;;;5051984;28;20200;-77
2021/12/11 06:36:52;;;;;;;11.43;6.50;;;0.40;99.90;;;;;;5051423;28;20214;-77
2021/12/11 06:39:21;;;;;;;1.63;1.63;;;0.40;99.90;;;;;;5051149;28;20592;-78
2021/12/11 06:41:52;;;;;;;1.20;1.13;;;0.50;99.90;;;;;;5051711;28;20207;-77
2021/12/11 06:44:19;;;;;;;27.48;8.68;;;0.50;99.90;;;;;;5051801;28;20572;-77
2021/12/11 06:46:53;;;;;;;3.90;1.65;;;0.50;99.90;;;;;;5051258;28;20224;-78
2021/12/11 06:49:20;;;;;;;4.13;3.75;;;0.50;99.90;;;;;;5050683;28;20391;-78
2021/12/11 06:51:47;;;;;;;2.83;2.70;;;0.50;99.90;;;;;;5051332;28;20375;-77
2021/12/11 06:54:14;;;;;;;0.52;0.52;;;0.50;99.90;;;;;;5051944;28;20209;-77
2021/12/11 06:56:42;;;;;;;15.90;7.50;;;0.50;99.90;;;;;;5051173;28;20215;-78
2021/12/11 06:59:10;;;;;;;2.60;2.38;;;0.50;99.90;;;;;;5051041;28;20710;-78
2021/12/11 07:01:37;;;;;;;1.20;1.10;;;0.50;99.90;;;;;;5051289;28;20198;-77
2021/12/11 07:04:07;;;;;;;12.38;5.78;;;0.60;99.90;;;;;;5051326;28;20694;-78
2021/12/11 07:06:36;;;;;;;9.38;4.10;;;0.60;99.90;;;;;;5051325;28;20644;-77
2021/12/11 07:09:05;;;;;;;2.88;2.67;;;0.60;99.90;;;;;;5054083;28;20194;-73
2021/12/11 07:11:33;;;;;;;3.65;3.45;;;0.60;99.90;;;;;;5054769;28;20940;-77
2021/12/11 07:14:00;;;;;;;1.05;1.05;;;0.70;99.90;;;;;;5055307;28;20198;-77
2021/12/11 07:16:27;;;;;;;6.05;3.70;;;0.70;99.90;;;;;;5054567;28;20706;-78
2021/12/11 07:18:54;;;;;;;11.35;5.68;;;0.70;99.90;;;;;;5054704;28;20221;-77
2021/12/11 07:21:22;;;;;;;5.65;3.33;;;0.60;99.90;;;;;;5057814;28;20597;-77
2021/12/11 07:23:49;;;;;;;5.68;4.57;;;0.70;99.90;;;;;;5054725;28;20206;-76
2021/12/11 07:26:22;;;;;;;20.52;12.85;;;0.70;99.90;;;;;;5054524;28;20305;-77
2021/12/11 07:28:52;;;;;;;2.63;1.98;;;0.70;99.90;;;;;;5054393;28;20589;-74
2021/12/11 07:31:20;;;;;;;17.60;4.93;;;0.80;99.90;;;;;;5054755;28;20179;-76
2021/12/11 07:33:47;;;;;;;0.40;0.40;;;0.80;99.90;;;;;;5054705;28;20201;-77
2021/12/11 07:36:14;;;;;;;11.00;4.72;;;0.80;99.90;;;;;;5054414;28;20285;-76
2021/12/11 07:38:42;;;;;;;9.10;5.53;;;0.90;99.90;;;;;;5054407;28;20194;-77
2021/12/11 07:41:12;;;;;;;10.82;3.85;;;0.90;99.90;;;;;;5054165;28;20676;-76
2021/12/11 07:43:40;;;;;;;4.20;3.05;;;1.00;99.90;;;;;;5054421;28;20206;-77
2021/12/11 07:46:10;;;;;;;1.13;1.13;;;1.00;99.90;;;;;;5053788;28;20194;-77
2021/12/11 07:48:37;;;;;;;8.55;3.28;;;1.00;99.90;;;;;;5054195;28;20195;-77
2021/12/11 07:51:05;;;;;;;15.27;11.60;;;1.10;99.90;;;;;;5054148;28;20194;-77
2021/12/11 07:53:32;;;;;;;4.10;3.90;;;1.10;99.90;;;;;;5054124;28;20208;-77
2021/12/11 07:56:01;;;;;;;0.40;0.40;;;1.10;99.90;;;;;;5054245;28;20598;-74
2021/12/11 07:58:31;;;;;;;1.30;1.20;;;1.20;99.90;;;;;;5054256;28;20193;-77
2021/12/11 08:00:59;;;;;;;0.40;0.40;;;1.30;99.90;;;;;;5053931;28;20263;-77
2021/12/11 08:03:26;;;;;;;0.40;0.30;;;1.30;99.90;;;;;;5053533;28;20568;-77
2021/12/11 08:05:54;;;;;;;1.23;1.13;;;1.40;99.90;;;;;;5054331;28;20199;-77
2021/12/11 08:08:23;;;;;;;0.38;0.30;;;1.40;99.90;;;;;;5053145;28;20221;-77
2021/12/11 08:10:53;;;;;;;0.70;0.70;;;1.50;99.90;;;;;;5053815;28;20187;-77
2021/12/11 08:13:22;;;;;;;1.83;1.73;;;1.50;99.90;;;;;;5053717;28;20189;-77
2021/12/11 08:15:49;;;;;;;5.60;3.65;;;1.50;99.90;;;;;;5053834;28;20205;-77
2021/12/11 08:18:17;;;;;;;6.18;2.70;;;1.50;99.90;;;;;;5053016;28;20754;-77
2021/12/11 08:20:46;;;;;;;1.65;1.55;;;1.50;99.90;;;;;;5053641;28;20222;-77
2021/12/11 08:23:14;;;;;;;3.40;1.95;;;1.60;99.90;;;;;;5053069;28;20202;-78
2021/12/11 08:25:44;;;;;;;3.50;3.40;;;1.60;99.90;;;;;;5053651;28;20563;-77
2021/12/11 08:28:14;;;;;;;0.40;0.30;;;1.70;99.90;;;;;;5053324;28;20297;-77
2021/12/11 08:30:46;;;;;;;10.90;2.83;;;1.80;99.90;;;;;;5053544;28;20181;-77
2021/12/11 08:33:13;;;;;;;1.50;1.40;;;1.80;99.90;;;;;;5053053;28;20199;-76
2021/12/11 08:35:40;;;;;;;0.40;0.40;;;1.90;99.90;;;;;;5053058;28;20198;-77
2021/12/11 08:38:09;;;;;;;0.40;0.30;;;1.90;99.90;;;;;;5053357;28;20710;-77
2021/12/11 08:40:41;;;;;;;0.93;0.93;;;1.90;99.90;;;;;;5052905;28;20220;-77
2021/12/11 08:43:10;;;;;;;17.27;3.45;;;2.00;99.90;;;;;;5053076;28;20203;-77
2021/12/11 08:45:46;;;;;;;1.30;1.30;;;2.10;99.90;;;;;;5052323;28;20199;-76
2021/12/11 08:48:17;;;;;;;0.40;0.40;;;2.10;99.90;;;;;;5053750;28;20213;-77
2021/12/11 08:50:46;;;;;;;0.40;0.30;;;2.20;99.90;;;;;;5052904;28;20194;-77
2021/12/11 08:53:13;;;;;;;0.50;0.50;;;2.30;99.90;;;;;;5053196;28;20198;-77
2021/12/11 08:55:43;;;;;;;1.58;1.50;;;2.40;99.90;;;;;;5053434;28;20223;-77
2021/12/11 08:58:13;;;;;;;2.55;2.45;;;2.40;99.90;;;;;;5052686;28;20213;-77
2021/12/11 09:00:45;;;;;;;0.57;0.57;;;2.40;99.90;;;;;;5052482;28;20595;-77
2021/12/11 09:03:19;;;;;;;0.40;0.30;;;2.40;99.90;;;;;;5053038;28;20179;-74
2021/12/11 09:05:49;;;;;;;3.35;2.05;;;2.40;99.90;;;;;;5052386;28;20183;-75
2021/12/11 09:08:18;;;;;;;0.75;0.75;;;2.40;99.90;;;;;;5052772;28;20213;-77
2021/12/11 09:10:52;;;;;;;0.40;0.40;;;2.40;99.90;;;;;;5052562;28;20195;-77
2021/12/11 09:13:23;;;;;;;0.45;0.45;;;2.40;99.90;;;;;;5052377;28;20182;-77
2021/12/11 09:15:58;;;;;;;0.85;0.85;;;2.40;99.90;;;;;;5052776;28;20556;-77
2021/12/11 09:18:29;;;;;;;0.82;0.82;;;2.40;99.90;;;;;;5052735;28;20186;-77
2021/12/11 09:21:01;;;;;;;0.45;0.40;;;2.50;99.90;;;;;;5052198;28;20214;-76
2021/12/11 09:23:32;;;;;;;1.48;1.25;;;2.50;99.90;;;;;;5052216;28;20194;-77
2021/12/11 09:26:05;;;;;;;3.83;3.65;;;2.50;99.90;;;;;;5052255;28;20206;-77
2021/12/11 09:28:36;;;;;;;8.27;7.97;;;2.50;99.90;;;;;;5052310;28;20198;-77
2021/12/11 09:31:11;;;;;;;0.40;0.30;;;2.60;99.90;;;;;;5051146;28;20204;-78
2021/12/11 09:33:45;;;;;;;4.13;1.30;;;2.60;99.90;;;;;;5051853;28;20198;-77
2021/12/11 09:36:16;;;;;;;0.40;0.30;;;2.60;99.90;;;;;;5052220;28;20568;-77
2021/12/11 09:38:46;;;;;;;0.40;0.30;;;2.60;99.90;;;;;;5052288;28;20190;-78
2021/12/11 09:41:20;;;;;;;0.40;0.40;;;2.60;99.90;;;;;;5052046;28;20226;-77
2021/12/11 09:43:50;;;;;;;0.50;0.43;;;2.70;99.90;;;;;;5052177;28;20199;-77
2021/12/11 09:46:22;;;;;;;0.40;0.40;;;2.70;99.90;;;;;;5051722;28;20199;-77
2021/12/11 09:48:50;;;;;;;1.63;1.42;;;2.60;99.90;;;;;;5051373;28;20247;-75
2021/12/11 09:51:20;;;;;;;0.50;0.50;;;2.70;99.90;;;;;;5052005;28;20518;-78
2021/12/11 09:53:52;;;;;;;0.40;0.40;;;2.60;99.90;;;;;;5051757;28;20199;-78
2021/12/11 09:56:28;;;;;;;0.50;0.50;;;2.70;99.90;;;;;;5052104;28;20189;-77
2021/12/11 09:58:57;;;;;;;0.50;0.50;;;2.70;99.90;;;;;;5051357;28;20186;-77
2021/12/11 10:01:28;;;;;;;4.03;2.25;;;2.70;99.90;;;;;;5051577;28;20217;-77
2021/12/11 10:04:00;;;;;;;0.50;0.50;;;2.80;99.90;;;;;;5051401;28;20255;-77
2021/12/11 10:06:44;;;;;;;0.95;0.95;;;2.80;99.90;;;;;;5051684;28;20218;-77
2021/12/11 10:09:20;;;;;;;4.95;2.78;;;2.80;99.90;;;;;;5051305;28;20596;-77
2021/12/11 10:11:53;;;;;;;0.93;0.93;;;2.90;99.90;;;;;;5051866;28;20191;-77
2021/12/11 10:14:24;;;;;;;0.50;0.40;;;2.90;99.90;;;;;;5051855;28;20190;-77
2021/12/11 10:16:55;;;;;;;3.50;3.20;;;2.90;99.90;;;;;;5051383;28;20218;-77
2021/12/11 10:19:29;;;;;;;0.50;0.50;;;3.00;99.90;;;;;;5051266;28;20482;-77
2021/12/11 10:22:01;;;;;;;4.20;1.95;;;3.00;99.90;;;;;;5052065;28;20182;-77
2021/12/11 10:24:31;;;;;;;8.93;4.47;;;3.00;99.90;;;;;;5052013;28;20179;-77
2021/12/11 10:27:00;;;;;;;5.57;3.10;;;3.00;99.90;;;;;;5051426;28;20230;-77
2021/12/11 10:29:28;;;;;;;3.17;2.97;;;3.00;99.90;;;;;;5051144;28;20222;-77
2021/12/11 10:31:58;;;;;;;1.13;1.13;;;3.00;99.90;;;;;;5052054;28;20195;-75
2021/12/11 10:34:29;;;;;;;1.95;1.85;;;2.90;99.90;;;;;;5051548;28;20556;-77
2021/12/11 10:36:59;;;;;;;0.52;0.52;;;2.90;99.90;;;;;;5051376;28;20214;-79
2021/12/11 10:39:26;;;;;;;0.40;0.40;;;3.00;99.90;;;;;;5051287;28;20611;-78
2021/12/11 10:41:54;;;;;;;0.60;0.60;;;3.00;99.90;;;;;;5052883;28;20221;-77
2021/12/11 10:44:24;;;;;;;0.40;0.40;;;3.00;99.90;;;;;;5055058;28;20556;-77
2021/12/11 10:46:56;;;;;;;1.80;1.75;;;3.10;99.90;;;;;;5054497;28;20725;-77
2021/12/11 10:49:23;;;;;;;11.70;3.08;;;3.10;99.90;;;;;;5055179;28;20191;-77
2021/12/11 10:51:53;;;;;;;0.40;0.30;;;3.10;99.90;;;;;;5055247;28;20686;-77
2021/12/11 10:54:22;;;;;;;0.40;0.30;;;3.20;99.90;;;;;;5055323;28;20199;-77
2021/12/11 10:56:50;;;;;;;1.75;1.60;;;3.20;99.90;;;;;;5055260;28;20221;-77
2021/12/11 10:59:21;;;;;;;1.30;1.30;;;3.20;99.90;;;;;;5054873;28;20646;-76
2021/12/11 11:01:53;;;;;;;1.10;1.08;;;3.20;99.90;;;;;;5055309;28;20210;-77
2021/12/11 11:04:27;;;;;;;0.40;0.30;;;3.20;99.90;;;;;;5054852;28;20194;-78
2021/12/11 11:06:54;;;;;;;7.03;1.70;;;3.20;99.90;;;;;;5055120;28;20211;-79
2021/12/11 11:09:23;;;;;;;0.40;0.30;;;3.20;99.90;;;;;;5054691;28;20663;-77
2021/12/11 11:11:53;;;;;;;8.90;8.07;;;3.20;99.90;;;;;;5055027;28;20194;-77
2021/12/11 11:14:20;;;;;;;0.60;0.60;;;3.20;99.90;;;;;;5054807;28;20289;-77
2021/12/11 11:16:54;;;;;;;4.80;3.20;;;3.30;99.90;;;;;;5054766;28;20222;-77
2021/12/11 11:19:24;;;;;;;0.40;0.40;;;3.30;99.90;;;;;;5054673;28;20195;-77
2021/12/11 11:21:56;;;;;;;3.95;3.65;;;3.30;99.90;;;;;;5054839;28;20199;-77
2021/12/11 11:24:26;;;;;;;0.93;0.93;;;3.30;99.90;;;;;;5054678;28;20552;-77
2021/12/11 11:26:52;;;;;;;0.40;0.40;;;3.30;99.90;;;;;;5054475;28;20222;-77
2021/12/11 11:29:22;;;;;;;2.25;1.35;;;3.30;99.90;;;;;;5053931;28;20206;-79
2021/12/11 11:31:53;;;;;;;0.70;0.70;;;3.40;99.90;;;;;;5054549;28;20560;-77
2021/12/11 11:34:24;;;;;;;0.40;0.40;;;3.50;99.90;;;;;;5054702;28;20694;-77
2021/12/11 11:36:51;;;;;;;3.47;3.28;;;3.50;99.90;;;;;;5054630;28;20214;-77
2021/12/11 11:39:20;;;;;;;0.40;0.40;;;3.50;99.90;;;;;;5054197;28;20207;-77
2021/12/11 11:41:50;;;;;;;4.43;4.13;;;3.60;99.90;;;;;;5054165;28;20211;-77
2021/12/11 11:44:18;;;;;;;0.85;0.82;;;3.60;99.90;;;;;;5054264;28;20205;-77
2021/12/11 11:46:46;;;;;;;3.55;1.42;;;3.70;99.90;;;;;;5053841;28;20273;-77
2021/12/11 11:49:15;;;;;;;0.40;0.30;;;3.70;99.90;;;;;;5054180;28;20537;-76
2021/12/11 11:51:46;;;;;;;2.72;2.53;;;3.80;99.90;;;;;;5053860;28;20187;-76
2021/12/11 11:54:16;;;;;;;0.40;0.30;;;3.80;99.90;;;;;;5053556;28;20205;-72
2021/12/11 11:56:51;;;;;;;6.05;1.30;;;3.90;99.90;;;;;;5053624;28;20226;-77
2021/12/11 11:59:18;;;;;;;0.40;0.30;;;3.90;99.90;;;;;;5054005;28;20197;-76
2021/12/11 12:01:50;;;;;;;0.50;0.30;;;4.00;99.90;;;;;;5054182;28;20215;-78
2021/12/11 12:04:19;;;;;;;0.93;0.93;;;4.00;99.90;;;;;;5053882;28;20205;-76
2021/12/11 12:06:55;;;;;;;1.40;1.40;;;4.10;99.90;;;;;;5053866;28;20231;-75
2021/12/11 12:09:24;;;;;;;0.40;0.40;;;4.10;99.90;;;;;;5053849;28;20223;-75
2021/12/11 12:11:50;;;;;;;0.40;0.30;;;4.20;99.90;;;;;;5053748;28;20193;-76
2021/12/11 12:14:24;;;;;;;0.40;0.30;;;4.20;99.90;;;;;;5054084;28;20194;-76
2021/12/11 12:16:52;;;;;;;2.05;1.67;;;4.20;99.90;;;;;;5053430;28;20219;-76
2021/12/11 12:19:20;;;;;;;0.40;0.30;;;4.30;99.90;;;;;;5053607;28;20568;-77
2021/12/11 12:21:51;;;;;;;0.43;0.43;;;4.30;99.90;;;;;;5053770;28;20206;-77
2021/12/11 12:24:20;;;;;;;0.40;0.30;;;4.40;99.90;;;;;;5053466;28;20179;-76
2021/12/11 12:26:47;;;;;;;0.40;0.30;;;4.40;99.90;;;;;;5052897;28;20223;-76
2021/12/11 12:29:15;;;;;;;3.40;2.35;;;4.40;99.90;;;;;;5053172;28;20293;-76
2021/12/11 12:31:45;;;;;;;1.65;1.55;;;4.50;99.90;;;;;;5053570;28;20195;-77
2021/12/11 12:34:13;;;;;;;0.40;0.40;;;4.50;99.90;;;;;;5053264;28;20205;-77
2021/12/11 12:36:44;;;;;;;0.40;0.30;;;4.50;99.90;;;;;;5053276;28;20218;-76
2021/12/11 12:39:14;;;;;;;8.13;2.55;;;4.60;99.90;;;;;;5053240;28;20237;-76
2021/12/11 12:41:53;;;;;;;0.95;0.95;;;4.60;99.90;;;;;;5053312;28;20214;-75
2021/12/11 12:44:22;;;;;;;0.40;0.40;;;4.60;99.90;;;;;;5053026;28;20192;-76
2021/12/11 12:46:55;;;;;;;0.40;0.30;;;4.60;99.90;;;;;;5051722;28;20253;-76
2021/12/11 12:49:22;;;;;;;0.40;0.40;;;4.70;99.90;;;;;;5052986;28;20195;-76
2021/12/11 12:51:49;;;;;;;0.40;0.30;;;4.60;99.90;;;;;;5054290;28;20190;-77
2021/12/11 12:54:20;;;;;;;0.40;0.30;;;4.70;99.90;;;;;;5052893;28;20199;-76
2021/12/11 12:56:53;;;;;;;0.60;0.60;;;4.70;99.90;;;;;;5052815;28;20218;-78
2021/12/11 12:59:23;;;;;;;4.25;3.85;;;4.70;99.90;;;;;;5052439;28;20278;-78
2021/12/11 13:01:55;;;;;;;0.40;0.30;;;4.80;99.90;;;;;;5051760;28;20223;-78
2021/12/11 13:04:25;;;;;;;0.40;0.40;;;4.80;99.90;;;;;;5052506;28;20229;-78
2021/12/11 13:06:56;;;;;;;2.13;1.98;;;4.80;99.90;;;;;;5051778;28;20211;-78
2021/12/11 13:09:28;;;;;;;0.47;0.45;;;4.90;99.90;;;;;;5052858;28;20526;-78